createdAt,value
2022-10-15T00:00:09.484Z,6.03
2022-10-15T00:02:36.384Z,6.40
2022-10-15T00:05:03.293Z,6.43
2022-10-15T00:07:30.082Z,6.68
2022-10-15T00:09:56.809Z,6.05
2022-10-15T00:12:23.609Z,6.63
2022-10-15T00:14:50.326Z,6.82
2022-10-15T00:17:17.111Z,7.40
2022-10-15T00:19:44.276Z,7.13
2022-10-15T00:22:11.063Z,7.65
2022-10-15T00:24:37.825Z,7.90
2022-10-15T00:27:04.714Z,7.60
2022-10-15T00:29:31.562Z,8.02
2022-10-15T00:31:58.340Z,7.38
2022-10-15T00:34:25.140Z,8.23
2022-10-15T00:36:51.954Z,8.02
2022-10-15T00:39:18.870Z,8.55
2022-10-15T00:41:46.308Z,8.52
2022-10-15T00:44:22.198Z,8.02
2022-10-15T00:46:55.938Z,8.48
2022-10-15T00:49:32.002Z,8.52
2022-10-15T00:52:05.691Z,8.23
2022-10-15T00:54:37.748Z,9.48
2022-10-15T00:57:07.037Z,8.80
2022-10-15T00:59:38.987Z,10.50
2022-10-15T01:02:07.425Z,10.50
2022-10-15T01:04:35.640Z,9.55
2022-10-15T01:07:02.459Z,9.35
2022-10-15T01:09:29.667Z,11.05
2022-10-15T01:11:57.301Z,10.57
2022-10-15T01:14:50.375Z,11.52
2022-10-15T01:17:27.269Z,11.75
2022-10-15T01:20:35.600Z,11.88
2022-10-15T01:23:11.089Z,11.35
2022-10-15T01:26:31.319Z,11.10
2022-10-15T01:29:38.699Z,11.75
2022-10-15T01:32:19.760Z,10.35
2022-10-15T01:35:00.530Z,10.43
2022-10-15T01:38:00.928Z,11.32
2022-10-15T01:40:40.971Z,12.30
2022-10-15T01:43:13.894Z,12.60
2022-10-15T01:46:06.435Z,12.45
2022-10-15T01:48:45.999Z,11.63
2022-10-15T01:51:15.532Z,9.65
2022-10-15T01:53:44.045Z,11.98
2022-10-15T01:56:15.674Z,12.77
2022-10-15T01:58:44.846Z,12.68
2022-10-15T02:01:11.888Z,13.25
2022-10-15T02:03:50.859Z,12.90
2022-10-15T02:06:42.177Z,12.70
2022-10-15T02:09:25.576Z,13.60
2022-10-15T02:12:07.375Z,15.45
2022-10-15T02:14:43.207Z,15.85
2022-10-15T02:17:11.305Z,15.52
2022-10-15T02:19:42.697Z,17.33
2022-10-15T02:22:16.574Z,16.92
2022-10-15T02:25:02.067Z,18.27
2022-10-15T02:27:30.349Z,16.98
2022-10-15T02:29:58.411Z,17.77
2022-10-15T02:32:26.864Z,17.65
2022-10-15T02:34:55.759Z,16.95
2022-10-15T02:37:25.730Z,18.23
2022-10-15T02:39:52.543Z,18.00
2022-10-15T02:42:19.842Z,18.38
2022-10-15T02:44:48.639Z,17.63
2022-10-15T02:47:15.597Z,17.35
2022-10-15T02:49:42.386Z,18.77
2022-10-15T02:52:09.922Z,18.50
2022-10-15T02:54:36.713Z,17.17
2022-10-15T02:57:03.611Z,19.05
2022-10-15T02:59:30.483Z,19.48
2022-10-15T03:01:58.684Z,18.90
2022-10-15T03:04:26.752Z,18.58
2022-10-15T03:06:53.840Z,16.85
2022-10-15T03:09:20.614Z,19.63
2022-10-15T03:11:47.445Z,18.00
2022-10-15T03:14:14.943Z,19.08
2022-10-15T03:16:41.815Z,20.35
2022-10-15T03:19:10.019Z,19.17
2022-10-15T03:21:36.861Z,19.67
2022-10-15T03:24:09.774Z,18.67
2022-10-15T03:26:36.768Z,18.10
2022-10-15T03:29:04.136Z,20.08
2022-10-15T03:31:39.114Z,19.35
2022-10-15T03:34:06.413Z,20.70
2022-10-15T03:36:33.262Z,18.35
2022-10-15T03:39:01.123Z,19.23
2022-10-15T03:41:28.025Z,19.58
2022-10-15T03:43:55.314Z,19.05
2022-10-15T03:46:22.110Z,19.23
2022-10-15T03:48:50.663Z,18.90
2022-10-15T03:51:22.794Z,19.77
2022-10-15T03:53:56.464Z,19.20
2022-10-15T03:56:23.790Z,19.38
2022-10-15T03:58:51.235Z,20.00
2022-10-15T04:01:19.190Z,20.00
2022-10-15T04:03:46.174Z,20.08
2022-10-15T04:06:17.153Z,20.02
2022-10-15T04:08:45.409Z,19.15
2022-10-15T04:11:20.859Z,20.73
2022-10-15T04:13:55.520Z,19.73
2022-10-15T04:16:22.555Z,21.17
2022-10-15T04:18:49.392Z,19.48
2022-10-15T04:21:16.370Z,20.20
2022-10-15T04:23:48.284Z,19.33
2022-10-15T04:26:26.197Z,20.23
2022-10-15T04:28:53.083Z,19.17
2022-10-15T04:31:22.130Z,18.90
2022-10-15T04:33:49.913Z,20.10
2022-10-15T04:38:54.588Z,20.02
2022-10-15T04:41:47.680Z,18.80
2022-10-15T04:44:17.697Z,19.52
2022-10-15T04:46:50.205Z,21.23
2022-10-15T04:49:46.310Z,19.40
2022-10-15T04:52:31.756Z,19.77
2022-10-15T04:55:05.977Z,18.52
2022-10-15T04:57:32.706Z,21.13
2022-10-15T04:59:59.518Z,20.90
2022-10-15T05:02:33.203Z,21.10
2022-10-15T05:05:18.479Z,18.70
2022-10-15T05:07:52.398Z,20.77
2022-10-15T05:10:19.492Z,19.48
2022-10-15T05:12:51.525Z,20.17
2022-10-15T05:15:28.381Z,20.92
2022-10-15T05:17:56.202Z,20.02
2022-10-15T05:20:28.968Z,19.38
2022-10-15T05:22:55.998Z,16.38
2022-10-15T05:25:23.776Z,19.58
2022-10-15T05:27:50.515Z,19.27
2022-10-15T05:30:17.404Z,19.98
2022-10-15T05:32:53.947Z,20.02
2022-10-15T05:35:22.335Z,20.00
2022-10-15T05:37:59.619Z,18.30
2022-10-15T05:40:26.432Z,21.25
2022-10-15T05:43:17.886Z,19.65
2022-10-15T05:45:44.593Z,19.50
2022-10-15T05:48:11.360Z,19.45
2022-10-15T05:50:38.152Z,20.67
2022-10-15T05:53:09.111Z,21.33
2022-10-15T05:55:42.629Z,21.10
2022-10-15T05:58:09.416Z,20.63
2022-10-15T06:00:36.387Z,20.83
2022-10-15T06:03:03.274Z,21.45
2022-10-15T06:05:30.056Z,22.27
2022-10-15T06:07:57.018Z,21.27
2022-10-15T06:10:23.855Z,20.77
2022-10-15T06:12:51.260Z,20.83
2022-10-15T06:15:19.417Z,21.75
2022-10-15T06:17:46.165Z,20.88
2022-10-15T06:20:13.383Z,20.65
2022-10-15T06:22:40.470Z,20.80
2022-10-15T06:25:08.014Z,20.17
2022-10-15T06:27:34.808Z,20.30
2022-10-15T06:30:01.776Z,20.50
2022-10-15T06:32:28.556Z,19.48
2022-10-15T06:34:55.290Z,21.40
2022-10-15T06:37:22.546Z,20.92
2022-10-15T06:39:51.018Z,21.88
2022-10-15T06:42:17.812Z,20.40
2022-10-15T06:44:47.682Z,20.50
2022-10-15T06:47:17.069Z,18.65
2022-10-15T06:49:46.002Z,19.40
2022-10-15T06:52:13.773Z,18.20
2022-10-15T06:54:40.645Z,18.13
2022-10-15T06:57:08.085Z,18.42
2022-10-15T06:59:38.553Z,18.10
2022-10-15T07:02:10.039Z,17.88
2022-10-15T07:04:36.916Z,18.65
2022-10-15T07:07:04.070Z,18.35
2022-10-15T07:09:31.125Z,18.30
2022-10-15T07:11:58.009Z,17.73
2022-10-15T07:14:24.822Z,18.27
2022-10-15T07:16:51.595Z,16.02
2022-10-15T07:19:18.322Z,16.45
2022-10-15T07:21:46.794Z,16.55
2022-10-15T07:24:13.901Z,17.10
2022-10-15T07:26:40.647Z,16.55
2022-10-15T07:29:07.439Z,17.13
2022-10-15T07:31:34.785Z,17.05
2022-10-15T07:34:01.642Z,17.27
2022-10-15T07:36:28.462Z,18.13
2022-10-15T07:38:55.248Z,17.63
2022-10-15T07:41:21.996Z,17.73
2022-10-15T07:43:51.386Z,18.23
2022-10-15T07:46:18.128Z,18.38
2022-10-15T07:48:44.881Z,18.63
2022-10-15T07:51:12.108Z,16.67
2022-10-15T07:53:39.125Z,18.02
2022-10-15T07:56:08.291Z,16.65
2022-10-15T07:58:38.028Z,16.75
2022-10-15T08:01:09.915Z,17.10
2022-10-15T08:03:37.955Z,16.65
2022-10-15T08:06:06.910Z,17.73
2022-10-15T08:08:35.015Z,16.73
2022-10-15T08:11:09.881Z,16.27
2022-10-15T08:13:39.085Z,17.33
2022-10-15T08:16:06.124Z,17.85
2022-10-15T08:18:33.198Z,18.58
2022-10-15T08:21:00.928Z,16.80
2022-10-15T08:23:28.408Z,18.63
2022-10-15T08:25:57.253Z,17.75
2022-10-15T08:28:24.062Z,16.60
2022-10-15T08:30:51.089Z,14.50
2022-10-15T08:33:17.861Z,16.70
2022-10-15T08:35:44.645Z,16.50
2022-10-15T08:38:14.749Z,16.67
2022-10-15T08:40:49.831Z,18.00
2022-10-15T08:43:23.100Z,16.25
2022-10-15T08:45:54.603Z,15.15
2022-10-15T08:48:29.606Z,15.32
2022-10-15T08:51:20.300Z,14.10
2022-10-15T08:53:51.091Z,12.75
2022-10-15T08:56:39.250Z,14.15
2022-10-15T08:59:31.901Z,13.32
2022-10-15T09:02:05.067Z,14.15
2022-10-15T09:04:53.119Z,14.57
2022-10-15T09:07:31.218Z,14.93
2022-10-15T09:10:14.996Z,15.05
2022-10-15T09:12:53.616Z,15.43
2022-10-15T09:15:26.899Z,14.80
2022-10-15T09:17:55.114Z,14.57
2022-10-15T09:20:32.948Z,13.45
2022-10-15T09:25:35.200Z,12.63
2022-10-15T09:28:14.600Z,13.75
2022-10-15T09:30:55.593Z,12.40
2022-10-15T09:33:47.424Z,12.63
2022-10-15T09:36:35.612Z,13.25
2022-10-15T09:39:33.863Z,12.88
2022-10-15T09:42:12.361Z,12.20
2022-10-15T09:44:42.406Z,12.50
2022-10-15T09:47:30.130Z,12.00
2022-10-15T09:50:07.957Z,12.48
2022-10-15T09:52:53.538Z,13.07
2022-10-15T09:55:42.854Z,12.40
2022-10-15T09:58:30.100Z,11.25
2022-10-15T10:00:58.964Z,11.60
2022-10-15T10:03:30.550Z,11.57
2022-10-15T10:06:08.103Z,12.35
2022-10-15T10:08:57.783Z,12.15
2022-10-15T10:11:26.043Z,12.30
2022-10-15T10:13:57.785Z,11.55
2022-10-15T10:16:25.415Z,12.18
2022-10-15T10:19:05.899Z,11.35
2022-10-15T10:21:36.334Z,12.15
2022-10-15T10:24:21.055Z,11.32
2022-10-15T10:26:48.513Z,11.88
2022-10-15T10:29:33.714Z,11.07
2022-10-15T10:32:23.501Z,10.13
2022-10-15T10:34:52.878Z,9.68
2022-10-15T10:37:20.512Z,9.18
2022-10-15T10:39:53.464Z,9.88
2022-10-15T10:42:20.806Z,9.40
2022-10-15T10:44:47.927Z,8.88
2022-10-15T10:47:17.832Z,9.65
2022-10-15T10:49:55.330Z,9.30
2022-10-15T10:52:31.486Z,9.43
2022-10-15T10:57:48.061Z,8.18
2022-10-15T11:00:40.809Z,7.68
2022-10-15T11:03:29.801Z,7.13
2022-10-15T11:06:41.025Z,7.13
2022-10-15T11:09:18.057Z,6.65
2022-10-15T11:12:03.191Z,6.57
2022-10-15T11:14:58.570Z,6.20
2022-10-15T11:18:08.770Z,5.80
2022-10-15T11:20:53.132Z,5.65
2022-10-15T11:23:22.608Z,5.78
2022-10-15T11:26:11.221Z,5.97
2022-10-15T11:29:01.205Z,5.72
2022-10-15T11:32:01.715Z,7.18
2022-10-15T11:35:06.956Z,5.57
2022-10-15T11:38:11.453Z,6.18
2022-10-15T11:41:03.003Z,5.30
2022-10-15T11:43:38.711Z,5.00
2022-10-15T11:46:30.204Z,5.57
2022-10-15T11:49:04.431Z,5.88
2022-10-15T11:51:52.610Z,4.43
2022-10-15T11:54:31.613Z,4.60
2022-10-15T11:57:01.420Z,4.30
2022-10-15T11:59:37.326Z,4.25
2022-10-15T12:02:13.979Z,4.07
2022-10-15T12:04:50.736Z,3.90
2022-10-15T12:07:41.339Z,4.15
2022-10-15T12:10:13.842Z,4.78
2022-10-15T12:13:03.894Z,4.72
2022-10-15T12:15:49.220Z,4.15
2022-10-15T12:18:33.695Z,4.10
2022-10-15T12:21:00.665Z,3.72
2022-10-15T12:23:40.966Z,4.10
2022-10-15T12:26:29.238Z,3.35
2022-10-15T12:29:02.929Z,3.15
2022-10-15T12:31:50.724Z,4.35
2022-10-15T12:34:39.275Z,3.15
2022-10-15T12:37:18.182Z,2.80
2022-10-15T12:39:52.462Z,3.10
2022-10-15T12:42:35.070Z,3.20
2022-10-15T12:45:05.908Z,3.20
2022-10-15T12:47:55.999Z,3.40
2022-10-15T12:50:25.672Z,2.78
2022-10-15T12:53:00.243Z,2.42
2022-10-15T12:55:30.318Z,2.67
2022-10-15T12:58:01.463Z,2.38
2022-10-15T13:00:37.538Z,2.50
2022-10-15T13:03:25.438Z,2.40
2022-10-15T13:05:54.427Z,2.50
2022-10-15T13:08:33.932Z,2.08
2022-10-15T13:11:01.475Z,2.10
2022-10-15T13:13:31.444Z,2.20
2022-10-15T13:16:06.939Z,2.20
2022-10-15T13:18:33.847Z,2.05
2022-10-15T13:23:31.602Z,1.92
2022-10-15T13:26:19.933Z,1.80
2022-10-15T13:28:49.324Z,1.80
2022-10-15T13:31:26.103Z,2.20
2022-10-15T13:33:59.902Z,2.55
2022-10-15T13:36:31.753Z,2.47
2022-10-15T13:39:01.487Z,2.40
2022-10-15T13:41:33.065Z,2.40
2022-10-15T13:44:01.165Z,2.42
2022-10-15T13:46:31.689Z,2.20
2022-10-15T13:49:04.160Z,2.80
2022-10-15T13:51:39.470Z,3.10
2022-10-15T13:54:15.291Z,3.47
2022-10-15T13:56:59.091Z,3.80
2022-10-15T13:59:28.710Z,4.38
2022-10-15T14:02:01.831Z,4.88
2022-10-15T14:04:30.791Z,4.90
2022-10-15T14:07:27.700Z,5.30
2022-10-15T14:09:55.208Z,6.20
2022-10-15T14:12:22.108Z,5.93
2022-10-15T14:14:49.393Z,6.00
2022-10-15T14:17:19.267Z,6.60
2022-10-15T14:20:14.291Z,7.47
2022-10-15T14:22:39.927Z,6.88
2022-10-15T14:27:45.802Z,7.05
2022-10-15T14:30:23.482Z,7.63
2022-10-15T14:32:53.035Z,7.18
2022-10-15T14:35:38.029Z,7.70
2022-10-15T14:38:10.971Z,7.80
2022-10-15T14:40:37.898Z,7.85
2022-10-15T14:43:17.153Z,8.30
2022-10-15T14:45:52.743Z,7.25
2022-10-15T14:48:27.203Z,7.97
2022-10-15T14:50:59.133Z,7.43
2022-10-15T14:53:28.966Z,7.68
2022-10-15T14:56:01.899Z,7.90
2022-10-15T14:58:30.186Z,7.90
2022-10-15T15:01:02.684Z,7.43
2022-10-15T15:03:37.882Z,7.80
2022-10-15T15:06:04.866Z,7.18
2022-10-15T15:08:31.971Z,8.20
2022-10-15T15:11:03.230Z,7.82
2022-10-15T15:13:36.885Z,7.43
2022-10-15T15:16:04.104Z,7.70
2022-10-15T15:18:30.854Z,9.55
2022-10-15T15:21:02.410Z,9.15
2022-10-15T15:23:29.884Z,7.45
2022-10-15T15:25:56.726Z,8.43
2022-10-15T15:28:26.349Z,8.82
2022-10-15T15:30:58.645Z,8.43
2022-10-15T15:33:25.789Z,7.47
2022-10-15T15:36:00.154Z,7.80
2022-10-15T15:38:33.343Z,7.68
2022-10-15T15:41:11.508Z,7.10
2022-10-15T15:43:38.825Z,7.85
2022-10-15T15:46:05.858Z,7.55
2022-10-15T15:48:32.692Z,7.82
2022-10-15T15:51:04.069Z,7.65
2022-10-15T15:53:31.107Z,8.90
2022-10-15T15:55:58.049Z,8.60
2022-10-15T15:58:24.869Z,8.02
2022-10-15T16:00:51.619Z,8.25
2022-10-15T16:03:18.334Z,8.23
2022-10-15T16:05:45.740Z,8.25
2022-10-15T16:08:13.274Z,8.25
2022-10-15T16:10:40.039Z,7.70
2022-10-15T16:13:06.793Z,8.52
2022-10-15T16:15:33.544Z,8.27
2022-10-15T16:18:00.340Z,8.02
2022-10-15T16:20:27.114Z,8.43
2022-10-15T16:22:54.239Z,7.75
2022-10-15T16:25:23.250Z,7.47
2022-10-15T16:27:52.013Z,7.75
2022-10-15T16:30:19.442Z,7.30
2022-10-15T16:32:46.371Z,7.15
2022-10-15T16:35:13.212Z,7.85
2022-10-15T16:37:39.956Z,7.55
2022-10-15T16:40:07.548Z,7.60
2022-10-15T16:42:34.413Z,8.70
2022-10-15T16:45:01.277Z,8.20
2022-10-15T16:47:28.343Z,7.85
2022-10-15T16:49:55.491Z,9.93
2022-10-15T16:52:22.595Z,8.55
2022-10-15T16:54:49.544Z,9.68
2022-10-15T16:57:16.267Z,14.27
2022-10-15T16:59:43.127Z,15.43
2022-10-15T17:02:12.051Z,21.60
2022-10-15T17:04:39.971Z,14.13
2022-10-15T17:07:06.718Z,25.73
2022-10-15T17:09:33.630Z,18.73
2022-10-15T17:12:00.357Z,19.42
2022-10-15T17:14:27.373Z,13.48
2022-10-15T17:16:54.131Z,10.20
2022-10-15T17:19:23.604Z,9.50
2022-10-15T17:21:50.789Z,9.93
2022-10-15T17:24:18.886Z,10.25
2022-10-15T17:26:46.930Z,9.43
2022-10-15T17:29:20.106Z,10.35
2022-10-15T17:31:48.162Z,10.07
2022-10-15T17:34:15.358Z,10.52
2022-10-15T17:36:47.155Z,10.43
2022-10-15T17:39:19.215Z,10.48
2022-10-15T17:41:46.244Z,10.13
2022-10-15T17:44:13.157Z,10.70
2022-10-15T17:46:40.728Z,9.80
2022-10-15T17:49:10.897Z,9.52
2022-10-15T17:51:39.305Z,8.35
2022-10-15T17:54:06.286Z,7.90
2022-10-15T17:56:35.425Z,7.70
2022-10-15T17:59:05.191Z,7.18
2022-10-15T18:02:04.312Z,6.53
2022-10-15T18:04:21.614Z,6.68
2022-10-15T18:06:48.386Z,6.60
2022-10-15T18:09:28.097Z,7.57
2022-10-15T18:11:55.705Z,5.88
2022-10-15T18:14:29.149Z,5.30
2022-10-15T18:16:56.289Z,5.30
2022-10-15T18:19:23.905Z,4.80
2022-10-15T18:21:50.665Z,4.57
2022-10-15T18:24:22.046Z,4.43
2022-10-15T18:26:53.024Z,4.30
2022-10-15T18:29:20.390Z,4.18
2022-10-15T18:31:47.555Z,3.95
2022-10-15T18:34:14.449Z,3.72
2022-10-15T18:36:43.409Z,4.03
2022-10-15T18:39:10.536Z,3.90
2022-10-15T18:41:38.338Z,3.60
2022-10-15T18:44:08.750Z,3.95
2022-10-15T18:46:36.044Z,3.75
2022-10-15T18:49:02.920Z,3.60
2022-10-15T18:51:31.117Z,3.28
2022-10-15T18:53:59.883Z,3.50
2022-10-15T18:56:27.323Z,3.60
2022-10-15T18:58:54.244Z,3.42
2022-10-15T19:01:30.137Z,3.58
2022-10-15T19:04:00.001Z,3.60
2022-10-15T19:06:32.713Z,3.35
2022-10-15T19:09:00.564Z,3.35
2022-10-15T19:11:31.058Z,3.35
2022-10-15T19:13:59.155Z,3.30
2022-10-15T19:16:26.235Z,3.53
2022-10-15T19:18:53.120Z,3.22
2022-10-15T19:21:20.214Z,3.28
2022-10-15T19:23:46.990Z,3.08
2022-10-15T19:26:16.255Z,3.10
2022-10-15T19:28:43.052Z,3.20
2022-10-15T19:31:12.804Z,2.90
2022-10-15T19:33:39.607Z,3.17
2022-10-15T19:36:06.744Z,2.95
2022-10-15T19:38:33.931Z,2.92
2022-10-15T19:41:04.704Z,3.25
2022-10-15T19:43:31.587Z,3.08
2022-10-15T19:46:03.918Z,2.83
2022-10-15T19:48:31.692Z,2.72
2022-10-15T19:51:01.493Z,2.58
2022-10-15T19:53:28.824Z,3.20
2022-10-15T19:55:58.349Z,2.83
2022-10-15T19:58:25.588Z,2.90
2022-10-15T20:00:53.157Z,2.85
2022-10-15T20:03:21.672Z,2.72
2022-10-15T20:05:48.682Z,2.83
2022-10-15T20:08:16.493Z,3.05
2022-10-15T20:10:44.877Z,2.92
2022-10-15T20:13:12.823Z,3.47
2022-10-15T20:15:44.286Z,3.13
2022-10-15T20:18:12.065Z,3.35
2022-10-15T20:20:41.038Z,3.70
2022-10-15T20:23:08.555Z,3.28
2022-10-15T20:25:38.347Z,3.03
2022-10-15T20:28:05.320Z,3.05
2022-10-15T20:30:32.234Z,3.13
2022-10-15T20:32:58.976Z,3.40
2022-10-15T20:35:25.724Z,3.38
2022-10-15T20:37:52.604Z,3.22
2022-10-15T20:40:19.472Z,3.88
2022-10-15T20:42:46.344Z,3.17
2022-10-15T20:45:16.658Z,3.30
2022-10-15T20:47:50.673Z,3.70
2022-10-15T20:50:24.068Z,3.40
2022-10-15T20:52:51.262Z,3.15
2022-10-15T20:55:18.129Z,3.20
2022-10-15T20:57:45.215Z,5.13
2022-10-15T21:00:12.670Z,3.55
2022-10-15T21:02:39.438Z,3.47
2022-10-15T21:05:06.621Z,3.88
2022-10-15T21:07:33.484Z,3.45
2022-10-15T21:10:00.945Z,3.40
2022-10-15T21:12:28.061Z,3.78
2022-10-15T21:14:54.998Z,3.60
2022-10-15T21:17:21.825Z,3.95
2022-10-15T21:19:51.850Z,4.15
2022-10-15T21:22:19.882Z,3.83
2022-10-15T21:24:46.643Z,4.30
2022-10-15T21:27:13.432Z,4.40
2022-10-15T21:29:42.262Z,4.93
2022-10-15T21:32:09.303Z,4.63
2022-10-15T21:34:36.191Z,4.70
2022-10-15T21:37:03.166Z,4.40
2022-10-15T21:39:29.985Z,5.65
2022-10-15T21:41:56.752Z,4.95
2022-10-15T21:44:23.601Z,5.28
2022-10-15T21:46:50.424Z,5.10
2022-10-15T21:49:17.155Z,5.45
2022-10-15T21:51:44.174Z,5.68
2022-10-15T21:54:11.172Z,5.55
2022-10-15T21:56:38.601Z,5.50
2022-10-15T21:59:05.378Z,6.30
2022-10-15T22:01:34.513Z,6.18
2022-10-15T22:04:06.740Z,5.88
2022-10-15T22:06:35.180Z,5.97
2022-10-15T22:09:04.212Z,6.57
2022-10-15T22:11:34.453Z,5.68
2022-10-15T22:14:03.840Z,5.05
2022-10-15T22:16:34.145Z,6.07
2022-10-15T22:19:01.085Z,5.72
2022-10-15T22:21:30.795Z,5.28
2022-10-15T22:24:00.420Z,6.20
2022-10-15T22:26:30.827Z,6.40
2022-10-15T22:28:59.897Z,5.80
2022-10-15T22:31:27.423Z,6.50
2022-10-15T22:33:54.572Z,6.65
2022-10-15T22:36:26.824Z,6.50
2022-10-15T22:39:01.540Z,7.82
2022-10-15T22:41:30.414Z,9.43
2022-10-15T22:43:57.637Z,10.30
2022-10-15T22:46:24.878Z,10.68
2022-10-15T22:48:53.538Z,10.88
2022-10-15T22:51:21.184Z,9.95
2022-10-15T22:53:48.147Z,9.95
2022-10-15T22:56:19.034Z,10.10
2022-10-15T22:58:46.081Z,9.32
2022-10-15T23:01:17.517Z,9.52
2022-10-15T23:03:46.956Z,9.57
2022-10-15T23:06:14.403Z,9.13
2022-10-15T23:08:41.744Z,9.07
2022-10-15T23:11:20.804Z,8.48
2022-10-15T23:13:52.120Z,8.93
2022-10-15T23:16:23.742Z,7.45
2022-10-15T23:18:55.721Z,7.55
2022-10-15T23:21:34.460Z,6.72
2022-10-15T23:24:02.603Z,7.25
2022-10-15T23:29:03.239Z,7.30
2022-10-15T23:31:32.951Z,7.32
2022-10-15T23:34:00.961Z,6.85
2022-10-15T23:36:30.194Z,7.78
2022-10-15T23:39:02.580Z,7.13
2022-10-15T23:41:30.245Z,7.22
2022-10-15T23:43:57.316Z,6.78
2022-10-15T23:46:24.449Z,5.65
2022-10-15T23:48:51.316Z,6.18
2022-10-15T23:51:29.097Z,6.22
2022-10-15T23:53:57.368Z,6.22
2022-10-15T23:56:24.925Z,6.32
2022-10-15T23:58:53.916Z,6.07
